Markham, Canada
Current Conditions -  °F | °C
As of 3:00 PM on Wednesday 28 Jan 2015 (Local Time) from CYKZ Reporting Station
Few Clouds Few Clouds  
Wind Chill: 30°   Ceiling: Unl
Heat Index: 30°   Visibility: 15mi
Dew Point:   Wind: 2mph
Humidity: 34%   Direction: 220°SW
Pressure: 30.26"   Gusts: NA
Location:  43.86°N, 79.34°W
Report Text: CYKZ 282000Z 22002KT 15SM FEW260 M01/M15 A3026 RMK CS1 SLP260
Loading
Personal Weather Stations






























Interactive Weather Map New forecast layout! Learn more

10-Day Weather Forecast

Advertisements
Track Severe Weather on mobile